Time;durP1;ratioP1;P1;durP2;ratioP2;P2;SDS_P1;SDS_P2;PMS_P1;PMS_P2;Temp;Humidity;BMP_temperature;BMP_pressure;BME280_temperature;BME280_humidity;BME280_pressure;Samples;Min_cycle;Max_cycle;Signal;HPM_P1;HPM_P2
2023/01/12 00:00:29;;;;;;;2.07;1.10;;;;;;;8.71;nan;100561.94;6177612;28;21622;-75
2023/01/12 00:03:51;;;;;;;2.00;1.40;;;;;;;8.73;nan;100538.47;6189048;28;20237;-78
2023/01/12 00:07:14;;;;;;;1.53;1.40;;;;;;;8.88;nan;100544.34;6209349;28;20636;-74
2023/01/12 00:10:35;;;;;;;1.60;1.50;;;;;;;8.91;nan;100530.66;6207734;28;20526;-73
2023/01/12 00:13:58;;;;;;;2.13;1.90;;;;;;;8.88;nan;100544.34;6189023;28;20229;-73
2023/01/12 00:17:19;;;;;;;1.47;1.37;;;;;;;8.83;nan;100542.91;6184906;28;20237;-74
2023/01/12 00:20:47;;;;;;;3.60;1.40;;;;;;;8.88;nan;100542.53;6188850;28;20233;-73
2023/01/12 00:24:08;;;;;;;5.83;1.80;;;;;;;8.86;nan;100544.50;6190821;28;20252;-74
2023/01/12 00:27:29;;;;;;;4.23;2.50;;;;;;;8.84;nan;100549.16;6193045;28;20861;-73
2023/01/12 00:30:51;;;;;;;3.93;1.70;;;;;;;8.85;nan;100513.22;6183293;28;20237;-73
2023/01/12 00:34:12;;;;;;;2.80;1.80;;;;;;;8.88;nan;100525.53;6189873;28;20235;-74
2023/01/12 00:37:34;;;;;;;1.90;1.53;;;;;;;8.95;nan;100511.41;6207141;28;20237;-74
2023/01/12 00:40:55;;;;;;;2.87;2.20;;;;;;;8.80;nan;100515.47;6184149;28;20261;-75
2023/01/12 00:47:56;;;;;;;26.83;2.20;;;;;;;8.81;nan;100533.28;6185214;28;20232;-75
2023/01/12 00:51:16;;;;;;;2.93;1.30;;;;;;;8.91;nan;100518.03;6202477;28;20237;-74
2023/01/12 00:54:37;;;;;;;4.67;1.40;;;;;;;9.02;nan;100514.41;6185595;28;20608;-74
2023/01/12 00:57:58;;;;;;;3.63;2.47;;;;;;;8.85;nan;100523.97;6185080;28;20244;-74
2023/01/12 01:01:19;;;;;;;7.07;1.60;;;;;;;8.95;nan;100502.53;6185341;28;20237;-74
2023/01/12 01:04:42;;;;;;;4.43;2.27;;;;;;;8.96;nan;100494.31;6201929;28;20273;-73
2023/01/12 01:08:04;;;;;;;3.47;1.90;;;;;;;8.94;nan;100506.19;6188716;28;20331;-73
2023/01/12 01:11:25;;;;;;;3.17;1.40;;;;;;;8.85;nan;100503.31;6185972;28;20233;-74
2023/01/12 01:14:47;;;;;;;3.90;2.23;;;;;;;8.97;nan;100492.47;6216226;28;20596;-74
2023/01/12 01:18:07;;;;;;;1.40;1.10;;;;;;;9.07;nan;100496.91;6188754;28;20224;-74
2023/01/12 01:21:30;;;;;;;7.10;1.70;;;;;;;9.22;nan;100489.31;6184134;28;20237;-74
2023/01/12 01:24:51;;;;;;;2.13;1.43;;;;;;;9.06;nan;100497.03;6186791;28;20237;-72
2023/01/12 01:28:12;;;;;;;3.13;1.80;;;;;;;9.13;nan;100495.50;6198703;28;20228;-74
2023/01/12 01:31:34;;;;;;;1.83;1.23;;;;;;;9.06;nan;100489.81;6181253;28;20233;-76
2023/01/12 01:34:54;;;;;;;2.50;1.40;;;;;;;9.22;nan;100498.22;6193631;28;20244;-74
2023/01/12 01:38:16;;;;;;;1.43;1.30;;;;;;;9.17;nan;100499.63;6188590;28;20236;-75
2023/01/12 01:41:37;;;;;;;8.60;3.63;;;;;;;9.26;nan;100514.94;6190209;28;20343;-74
2023/01/12 01:45:01;;;;;;;2.87;2.63;;;;;;;9.32;nan;100507.19;6213499;28;20229;-74
2023/01/12 01:48:23;;;;;;;2.10;1.13;;;;;;;9.28;nan;100507.59;6219446;28;20227;-73
2023/01/12 01:51:45;;;;;;;2.00;1.73;;;;;;;9.45;nan;100504.25;6206416;28;20234;-74
2023/01/12 01:55:11;;;;;;;4.87;1.70;;;;;;;9.29;nan;100494.00;6205444;28;20237;-74
2023/01/12 01:58:36;;;;;;;1.70;1.00;;;;;;;9.24;nan;100493.56;6219098;28;20223;-73
2023/01/12 02:01:57;;;;;;;5.13;2.63;;;;;;;9.30;nan;100501.09;6204365;28;20248;-75
2023/01/12 02:05:20;;;;;;;5.63;2.00;;;;;;;9.32;nan;100500.94;6200665;28;20264;-74
2023/01/12 02:08:46;;;;;;;1.70;1.17;;;;;;;9.45;nan;100493.50;6192057;28;20261;-75
2023/01/12 02:19:57;;;;;;;3.37;2.23;;;;;;;9.36;nan;100499.69;6191594;28;20233;-73
2023/01/12 02:23:45;;;;;;;5.63;1.80;;;;;;;9.40;nan;100477.75;6193101;28;20229;-73
2023/01/12 02:27:33;;;;;;;2.13;1.93;;;;;;;9.38;nan;100484.25;6193715;28;20233;-74
2023/01/12 02:31:21;;;;;;;2.13;1.63;;;;;;;9.33;nan;100484.66;6192142;28;20570;-74
2023/01/12 02:34:54;;;;;;;5.07;1.33;;;;;;;9.49;nan;100493.03;6206502;28;20685;-73
2023/01/12 02:38:29;;;;;;;2.83;2.20;;;;;;;9.46;nan;100487.09;6208242;28;21196;-74
2023/01/12 02:45:42;;;;;;;7.67;3.37;;;;;;;9.34;nan;100482.84;6205891;28;21428;-75
2023/01/12 02:49:10;;;;;;;3.60;2.07;;;;;;;9.43;nan;100468.53;6195029;28;20256;-74
2023/01/12 02:52:33;;;;;;;1.07;1.00;;;;;;;9.33;nan;100468.53;6186707;28;20296;-74
2023/01/12 02:55:54;;;;;;;2.57;1.60;;;;;;;9.31;nan;100477.72;6224168;28;20232;-73
2023/01/12 02:59:20;;;;;;;4.10;1.23;;;;;;;9.35;nan;100465.69;6211330;28;20563;-73
2023/01/12 03:02:40;;;;;;;2.07;1.03;;;;;;;9.26;nan;100463.84;6195488;28;20236;-73
2023/01/12 03:06:05;;;;;;;2.77;1.57;;;;;;;9.25;nan;100473.75;6199455;28;20602;-74
2023/01/12 03:09:30;;;;;;;2.23;2.13;;;;;;;9.38;nan;100466.28;6199557;28;20316;-73
2023/01/12 03:12:53;;;;;;;2.83;2.63;;;;;;;9.30;nan;100470.66;6181165;28;20225;-74
2023/01/12 03:16:18;;;;;;;1.40;1.30;;;;;;;9.24;nan;100474.72;6198289;28;20575;-74
2023/01/12 03:19:42;;;;;;;2.37;2.13;;;;;;;9.15;nan;100464.81;6188151;28;20731;-74
2023/01/12 03:23:09;;;;;;;0.87;0.87;;;;;;;9.08;nan;100513.88;6188417;28;20228;-77
2023/01/12 03:26:33;;;;;;;2.17;1.07;;;;;;;9.18;nan;100477.13;6188095;28;20265;-74
2023/01/12 03:29:58;;;;;;;0.87;0.87;;;;;;;9.19;nan;100473.44;6210960;28;20228;-74
2023/01/12 03:33:20;;;;;;;2.40;1.67;;;;;;;9.11;nan;100476.84;6208099;28;20236;-74
2023/01/12 03:36:48;;;;;;;2.37;1.20;;;;;;;9.29;nan;100472.47;6194248;28;20531;-73
2023/01/12 03:40:15;;;;;;;0.60;0.60;;;;;;;9.23;nan;100466.81;6184158;28;20260;-74
2023/01/12 03:43:41;;;;;;;3.70;1.10;;;;;;;9.15;nan;100477.41;6194596;28;20232;-73
2023/01/12 03:47:05;;;;;;;1.73;1.63;;;;;;;9.24;nan;100463.97;6201358;28;20242;-74
2023/01/12 03:50:34;;;;;;;5.83;1.00;;;;;;;9.06;nan;100471.00;6223307;28;20280;-75
2023/01/12 03:53:57;;;;;;;3.17;2.07;;;;;;;9.15;nan;100455.88;6162423;28;1049299;-73
2023/01/12 03:57:20;;;;;;;4.57;1.97;;;;;;;9.17;nan;100462.84;6185896;28;20232;-73
2023/01/12 04:00:41;;;;;;;2.07;1.17;;;;;;;9.28;nan;100453.81;6201447;28;21976;-74
2023/01/12 04:04:03;;;;;;;1.17;1.10;;;;;;;9.12;nan;100446.25;6203488;28;20240;-74
2023/01/12 04:07:23;;;;;;;1.37;1.27;;;;;;;9.07;nan;100451.22;6186298;28;20232;-75
2023/01/12 04:10:44;;;;;;;1.97;1.70;;;;;;;9.12;nan;100443.56;6197429;28;20225;-74
2023/01/12 04:14:06;;;;;;;3.57;1.40;;;;;;;9.15;nan;100440.59;6203099;28;20237;-73
2023/01/12 04:17:28;;;;;;;7.10;1.37;;;;;;;9.20;nan;100435.66;6190433;28;20228;-73
2023/01/12 04:20:48;;;;;;;1.57;1.43;;;;;;;9.19;nan;100436.66;6192765;28;20241;-74
2023/01/12 04:24:08;;;;;;;3.23;1.37;;;;;;;9.22;nan;100430.97;6193375;28;20867;-74
2023/01/12 04:27:29;;;;;;;2.83;1.40;;;;;;;9.36;nan;100433.28;6190863;28;20236;-73
2023/01/12 04:30:51;;;;;;;3.17;2.40;;;;;;;9.17;nan;100432.41;6191735;28;20387;-74
2023/01/12 04:34:12;;;;;;;1.70;1.60;;;;;;;9.33;nan;100421.94;6190319;28;20245;-73
2023/01/12 04:37:33;;;;;;;3.33;3.03;;;;;;;9.33;nan;100419.25;6180724;28;20802;-74
2023/01/12 04:40:54;;;;;;;1.00;0.97;;;;;;;9.22;nan;100411.34;6186055;28;20348;-74
2023/01/12 04:44:15;;;;;;;1.20;1.10;;;;;;;9.36;nan;100410.91;6192677;28;20465;-74
2023/01/12 04:47:38;;;;;;;5.27;2.07;;;;;;;9.32;nan;100407.66;6179205;28;20315;-75
2023/01/12 04:51:00;;;;;;;2.93;1.30;;;;;;;9.54;nan;100399.31;6199291;28;20256;-74
2023/01/12 04:54:21;;;;;;;0.80;0.80;;;;;;;9.44;nan;100406.53;6197154;28;20236;-74
2023/01/12 04:57:42;;;;;;;1.30;1.20;;;;;;;9.29;nan;100399.00;6186365;28;20232;-74
2023/01/12 05:01:09;;;;;;;2.20;2.10;;;;;;;9.35;nan;100391.22;6200864;28;20328;-74
2023/01/12 05:04:32;;;;;;;1.97;1.70;;;;;;;9.39;nan;100386.41;6202444;28;20534;-75
2023/01/12 05:11:31;;;;;;;0.90;0.90;;;;;;;9.55;nan;100379.47;6200424;28;21003;-74
2023/01/12 05:14:52;;;;;;;1.27;1.17;;;;;;;9.47;nan;100365.06;6204267;28;20232;-74
2023/01/12 05:18:12;;;;;;;2.63;1.73;;;;;;;9.48;nan;100364.91;6213277;28;20239;-73
2023/01/12 05:21:35;;;;;;;2.47;1.30;;;;;;;9.30;nan;100355.84;6203484;28;20233;-74
2023/01/12 05:24:56;;;;;;;2.17;1.43;;;;;;;9.33;nan;100355.56;6215855;28;20751;-74
2023/01/12 05:28:17;;;;;;;1.07;0.83;;;;;;;9.26;nan;100348.19;6224618;28;20224;-74
2023/01/12 05:31:37;;;;;;;5.80;2.17;;;;;;;9.27;nan;100331.91;6223145;28;20228;-74
2023/01/12 05:34:58;;;;;;;3.97;1.40;;;;;;;9.17;nan;100333.75;6225577;28;20232;-74
2023/01/12 05:38:20;;;;;;;1.60;1.07;;;;;;;9.10;nan;100332.59;6203524;28;20236;-73
2023/01/12 05:43:48;;;;;;;3.27;2.37;;;;;;;8.91;nan;100332.56;6190016;28;20229;-74
2023/01/12 05:45:22;;;;;;;2.10;1.93;;;;;;;9.02;nan;100302.03;6193918;28;20224;-73
2023/01/12 05:48:43;;;;;;;1.87;1.10;;;;;;;9.03;nan;100291.16;6199798;28;20772;-74
2023/01/12 05:52:04;;;;;;;7.60;1.63;;;;;;;8.98;nan;100289.84;6198647;28;20227;-74
2023/01/12 05:55:26;;;;;;;2.13;1.30;;;;;;;8.93;nan;100287.59;6203843;28;20541;-73
2023/01/12 05:58:51;;;;;;;2.40;1.33;;;;;;;8.84;nan;100280.38;6198110;28;20249;-73
2023/01/12 06:02:16;;;;;;;3.17;1.17;;;;;;;9.01;nan;100266.22;6176893;28;20308;-74
2023/01/12 06:05:36;;;;;;;3.53;2.17;;;;;;;9.01;nan;100255.47;6204938;28;20233;-73
2023/01/12 06:08:58;;;;;;;1.20;1.10;;;;;;;9.01;nan;100265.41;6200818;28;20327;-73
2023/01/12 06:16:04;;;;;;;2.30;1.30;;;;;;;9.00;nan;100248.41;6199208;28;20228;-74
2023/01/12 06:19:25;;;;;;;2.70;1.23;;;;;;;9.01;nan;100265.41;6197073;28;20229;-73
2023/01/12 06:22:45;;;;;;;1.70;1.20;;;;;;;9.17;nan;100239.63;6187875;28;20240;-74
2023/01/12 06:26:08;;;;;;;1.97;1.40;;;;;;;9.17;nan;100220.81;6205124;28;20603;-74
2023/01/12 06:29:30;;;;;;;2.90;2.63;;;;;;;9.14;nan;100213.03;6200744;28;20320;-74
2023/01/12 06:32:51;;;;;;;1.47;1.37;;;;;;;9.21;nan;100207.91;6197196;28;20638;-73
2023/01/12 06:36:12;;;;;;;4.53;1.30;;;;;;;9.07;nan;100213.75;6200299;28;20611;-73
2023/01/12 06:39:33;;;;;;;1.37;1.23;;;;;;;9.16;nan;100210.19;6195709;28;20245;-74
2023/01/12 06:42:54;;;;;;;1.83;1.73;;;;;;;9.11;nan;100207.94;6193818;28;20815;-71
2023/01/12 06:46:17;;;;;;;2.10;2.00;;;;;;;9.02;nan;100200.72;6197770;28;20233;-72
2023/01/12 06:49:38;;;;;;;1.30;1.20;;;;;;;9.24;nan;100196.88;6203056;28;20238;-74
2023/01/12 06:52:59;;;;;;;9.43;1.33;;;;;;;9.18;nan;100192.91;6195602;28;20236;-75
2023/01/12 06:56:20;;;;;;;1.37;1.27;;;;;;;9.32;nan;100183.56;6193586;28;20221;-74
2023/01/12 06:59:41;;;;;;;1.93;1.83;;;;;;;9.20;nan;100174.78;6193621;28;20550;-74
2023/01/12 07:03:04;;;;;;;1.23;1.23;;;;;;;9.16;nan;100164.47;6180530;28;20808;-71
2023/01/12 07:06:25;;;;;;;4.87;2.77;;;;;;;9.18;nan;100176.78;6199177;28;20632;-72
2023/01/12 07:09:46;;;;;;;3.10;2.37;;;;;;;9.22;nan;100167.44;6171714;28;20682;-72
2023/01/12 07:13:06;;;;;;;1.43;1.33;;;;;;;9.30;nan;100147.91;6200249;28;20495;-69
2023/01/12 07:16:27;;;;;;;1.27;1.10;;;;;;;9.23;nan;100134.19;6214659;28;20266;-70
2023/01/12 07:19:50;;;;;;;1.80;1.70;;;;;;;9.18;nan;100120.31;6186324;28;20236;-70
2023/01/12 07:23:11;;;;;;;1.00;1.00;;;;;;;9.19;nan;100100.50;6190954;28;20237;-72
2023/01/12 07:26:32;;;;;;;1.43;1.33;;;;;;;9.26;nan;100106.16;6185970;28;20305;-71
2023/01/12 07:29:53;;;;;;;1.80;1.70;;;;;;;9.24;nan;100097.38;6219313;28;20264;-74
2023/01/12 07:33:15;;;;;;;1.40;1.30;;;;;;;9.33;nan;100097.34;6217212;28;20578;-73
2023/01/12 07:36:37;;;;;;;1.77;1.67;;;;;;;9.34;nan;100071.31;6213100;28;20232;-70
2023/01/12 07:39:58;;;;;;;1.80;1.70;;;;;;;9.42;nan;100082.16;6211238;28;20278;-73
2023/01/12 07:43:19;;;;;;;2.23;1.10;;;;;;;9.46;nan;100072.78;6217039;28;20248;-72
2023/01/12 07:46:40;;;;;;;1.40;1.30;;;;;;;9.38;nan;100060.09;6203762;28;20603;-75
2023/01/12 07:50:00;;;;;;;1.60;1.23;;;;;;;9.36;nan;100066.63;6210952;28;20237;-73
2023/01/12 07:53:23;;;;;;;2.30;1.37;;;;;;;9.38;nan;100078.06;6206206;28;20662;-70
2023/01/12 07:56:44;;;;;;;1.00;1.00;;;;;;;9.35;nan;100065.75;6207043;28;20230;-71
2023/01/12 08:00:06;;;;;;;1.43;1.33;;;;;;;9.27;nan;100054.06;6189211;28;20615;-70
2023/01/12 08:03:27;;;;;;;1.30;1.20;;;;;;;9.22;nan;100053.66;6204625;28;20704;-73
2023/01/12 08:06:48;;;;;;;2.13;1.13;;;;;;;9.27;nan;100048.66;6200630;28;20319;-72
2023/01/12 08:10:12;;;;;;;0.60;0.60;;;;;;;9.15;nan;100015.75;6221049;28;20320;-77
2023/01/12 08:13:34;;;;;;;2.43;1.43;;;;;;;9.14;nan;100035.56;6198308;28;20229;-76
2023/01/12 08:17:00;;;;;;;0.50;0.50;;;;;;;9.14;nan;100007.81;6207150;28;20239;-73
2023/01/12 08:20:25;;;;;;;0.70;0.70;;;;;;;9.12;nan;99983.78;6221586;28;20239;-71
2023/01/12 08:23:50;;;;;;;2.77;2.43;;;;;;;9.01;nan;99997.41;6217322;28;20310;-72
2023/01/12 08:27:12;;;;;;;2.00;0.63;;;;;;;8.95;nan;99984.56;6189488;28;20240;-75
2023/01/12 08:30:34;;;;;;;8.20;1.27;;;;;;;9.01;nan;99972.38;6200517;28;20253;-74
2023/01/12 08:33:55;;;;;;;1.20;1.10;;;;;;;9.06;nan;99976.31;6195445;28;20240;-73
2023/01/12 08:37:20;;;;;;;0.70;0.70;;;;;;;9.10;nan;99979.53;6188762;28;20654;-74
2023/01/12 08:44:21;;;;;;;1.87;0.80;;;;;;;9.11;nan;99968.66;6194408;28;21779;-75
2023/01/12 08:47:44;;;;;;;0.40;0.40;;;;;;;8.92;nan;99965.19;6196010;28;20323;-74
2023/01/12 08:51:06;;;;;;;0.70;0.70;;;;;;;8.96;nan;99955.84;6201063;28;20359;-75
2023/01/12 08:54:27;;;;;;;0.60;0.60;;;;;;;8.79;nan;99935.97;6200208;28;20576;-76
2023/01/12 08:57:48;;;;;;;3.50;0.80;;;;;;;8.90;nan;99946.53;6187731;28;20244;-75
2023/01/12 09:01:15;;;;;;;0.50;0.50;;;;;;;8.85;nan;99954.19;6204222;28;20237;-72
2023/01/12 09:04:38;;;;;;;0.67;0.67;;;;;;;9.00;nan;99923.16;6215155;28;20244;-73
2023/01/12 09:07:59;;;;;;;0.50;0.50;;;;;;;8.84;nan;99952.50;6188305;28;20348;-75
2023/01/12 09:11:20;;;;;;;1.10;0.60;;;;;;;8.93;nan;99956.16;6191642;28;20225;-72
2023/01/12 09:14:41;;;;;;;0.87;0.70;;;;;;;10.68;nan;99949.94;6219078;28;20237;-79
2023/01/12 09:18:04;;;;;;;0.40;0.40;;;;;;;10.51;nan;99968.88;6193920;28;20231;-74
2023/01/12 09:21:26;;;;;;;0.73;0.57;;;;;;;10.30;nan;99947.69;6198495;28;20233;-74
2023/01/12 09:24:47;;;;;;;0.67;0.67;;;;;;;9.99;nan;99951.75;6199558;28;20236;-72
2023/01/12 09:28:08;;;;;;;1.13;0.60;;;;;;;9.89;nan;99959.91;6196357;28;20237;-73
2023/01/12 09:31:30;;;;;;;0.40;0.40;;;;;;;10.01;nan;99947.06;6207273;28;20234;-71
2023/01/12 09:34:53;;;;;;;0.50;0.50;;;;;;;10.10;nan;99925.47;6199576;28;20706;-73
2023/01/12 09:38:16;;;;;;;0.73;0.73;;;;;;;9.93;nan;99947.00;6191436;28;20233;-77
2023/01/12 09:48:58;;;;;;;1.60;1.50;;;;;;;10.14;nan;99956.47;6216434;28;20232;-73
2023/01/12 09:52:24;;;;;;;0.40;0.40;;;;;;;10.21;nan;99933.28;6207585;28;20228;-74
2023/01/12 09:55:51;;;;;;;0.40;0.40;;;;;;;10.36;nan;99952.44;6227347;28;20240;-78
2023/01/12 09:59:24;;;;;;;0.40;0.40;;;;;;;10.29;nan;99948.66;6228252;28;20232;-82
2023/01/12 10:02:50;;;;;;;0.60;0.60;;;;;;;10.57;nan;99952.06;6207504;28;20657;-75
2023/01/12 10:06:14;;;;;;;0.40;0.40;;;;;;;10.63;nan;99952.28;6225253;28;20232;-71
2023/01/12 10:09:37;;;;;;;0.50;0.50;;;;;;;10.70;nan;99942.53;6223794;28;20488;-71
2023/01/12 10:13:02;;;;;;;0.97;0.70;;;;;;;10.56;nan;99963.81;6224095;28;20786;-73
2023/01/12 10:16:30;;;;;;;0.40;0.40;;;;;;;10.50;nan;99943.75;6218601;28;21424;-75
2023/01/12 10:19:57;;;;;;;2.30;1.10;;;;;;;10.62;nan;99933.56;6191127;28;20275;-72
2023/01/12 10:23:23;;;;;;;0.70;0.70;;;;;;;10.63;nan;99946.88;6191801;28;20328;-73
2023/01/12 10:26:45;;;;;;;0.40;0.40;;;;;;;10.67;nan;99947.41;6206582;28;20356;-74
2023/01/12 10:30:12;;;;;;;0.40;0.40;;;;;;;10.38;nan;99969.28;6189734;28;20244;-75
2023/01/12 10:33:34;;;;;;;0.40;0.40;;;;;;;10.62;nan;99957.84;6221367;28;20675;-77
2023/01/12 10:37:06;;;;;;;0.40;0.40;;;;;;;10.45;nan;99951.50;6183035;28;20224;-74
2023/01/12 10:40:30;;;;;;;0.50;0.50;;;;;;;10.75;nan;99947.44;6209593;28;20241;-76
2023/01/12 10:44:13;;;;;;;0.60;0.60;;;;;;;10.28;nan;99955.06;6212543;28;20228;-76
2023/01/12 10:47:34;;;;;;;0.50;0.50;;;;;;;10.58;nan;99942.94;6228793;28;20232;-73
2023/01/12 10:50:58;;;;;;;0.33;0.33;;;;;;;10.47;nan;99979.13;6226037;28;20229;-75
2023/01/12 10:54:22;;;;;;;0.47;0.40;;;;;;;10.71;nan;99941.53;6227316;28;20358;-74
2023/01/12 10:57:44;;;;;;;0.40;0.40;;;;;;;10.64;nan;99947.75;6194654;28;20232;-74
2023/01/12 11:01:07;;;;;;;0.47;0.47;;;;;;;10.58;nan;99949.19;6199991;28;20559;-73
2023/01/12 11:04:29;;;;;;;1.03;0.67;;;;;;;10.50;nan;99951.00;6191384;28;20327;-71
2023/01/12 11:07:50;;;;;;;0.50;0.50;;;;;;;10.83;nan;99928.59;6194347;28;20228;-72
2023/01/12 11:11:16;;;;;;;0.47;0.47;;;;;;;11.05;nan;99925.34;6198607;28;20228;-73
2023/01/12 11:14:37;;;;;;;0.73;0.63;;;;;;;10.66;nan;99930.38;6211329;28;20233;-73
2023/01/12 11:18:17;;;;;;;0.57;0.57;;;;;;;10.79;nan;99930.78;6211141;28;20608;-72
2023/01/12 11:21:43;;;;;;;0.40;0.40;;;;;;;10.85;nan;99959.81;6223334;28;20224;-76
2023/01/12 11:25:10;;;;;;;1.03;0.70;;;;;;;11.05;nan;99936.16;6215871;28;20259;-73
2023/01/12 11:28:37;;;;;;;0.80;0.80;;;;;;;10.91;nan;99928.69;6196832;28;20464;-73
2023/01/12 11:32:04;;;;;;;0.50;0.50;;;;;;;11.02;nan;99940.00;6182469;28;20257;-74
2023/01/12 11:35:34;;;;;;;1.70;0.60;;;;;;;10.97;nan;99938.81;6220926;28;20233;-73
2023/01/12 11:39:00;;;;;;;0.50;0.50;;;;;;;11.11;nan;99927.41;6206578;28;20728;-73
2023/01/12 11:46:16;;;;;;;0.57;0.57;;;;;;;10.98;nan;99932.41;6195789;28;20473;-75
2023/01/12 11:49:42;;;;;;;0.70;0.70;;;;;;;11.41;nan;99918.72;6194319;28;20234;-76
2023/01/12 11:53:06;;;;;;;0.60;0.50;;;;;;;11.18;nan;99948.16;6213879;28;20236;-76
2023/01/12 11:56:43;;;;;;;0.57;0.57;;;;;;;11.07;nan;99923.34;6188023;28;20847;-75
2023/01/12 12:00:27;;;;;;;2.10;0.53;;;;;;;11.24;nan;99927.78;6204409;28;20241;-72
2023/01/12 12:04:00;;;;;;;0.60;0.60;;;;;;;11.34;nan;99923.09;6184948;28;21130;-74
2023/01/12 12:07:35;;;;;;;0.20;0.20;;;;;;;11.29;nan;99960.50;6192600;28;21745;-76
2023/01/12 12:11:02;;;;;;;0.30;0.30;;;;;;;11.42;nan;99938.44;6193170;28;20335;-75
2023/01/12 12:14:38;;;;;;;4.33;0.87;;;;;;;11.30;nan;99951.41;6204574;28;20232;-76
2023/01/12 12:18:08;;;;;;;0.33;0.33;;;;;;;11.55;nan;99946.94;6203828;28;20227;-73
2023/01/12 12:21:46;;;;;;;0.50;0.50;;;;;;;11.66;nan;99943.94;6212373;28;20232;-74
2023/01/12 12:25:23;;;;;;;0.40;0.40;;;;;;;11.48;nan;99929.69;6215456;28;20270;-76
2023/01/12 12:29:02;;;;;;;0.70;0.70;;;;;;;11.55;nan;99930.75;6222250;28;22124;-76
2023/01/12 12:32:33;;;;;;;1.20;1.10;;;;;;;11.57;nan;99940.38;6193234;28;20295;-77
2023/01/12 12:36:08;;;;;;;0.60;0.60;;;;;;;11.75;nan;99940.25;6194141;28;20237;-74
2023/01/12 12:39:36;;;;;;;2.13;1.40;;;;;;;11.67;nan;99949.19;6196582;28;20233;-74
2023/01/12 12:46:58;;;;;;;0.90;0.90;;;;;;;11.61;nan;99963.31;6210638;28;20560;-74
2023/01/12 12:50:22;;;;;;;1.70;0.60;;;;;;;11.61;nan;99955.22;6196131;28;20263;-76
2023/01/12 12:53:46;;;;;;;0.93;0.90;;;;;;;11.78;nan;99951.56;6193505;28;20277;-74
2023/01/12 12:57:07;;;;;;;0.90;0.70;;;;;;;11.70;nan;99964.22;6201705;28;20332;-74
2023/01/12 13:00:39;;;;;;;0.80;0.80;;;;;;;11.63;nan;99965.84;6208223;28;20226;-76
2023/01/12 13:04:02;;;;;;;1.70;1.60;;;;;;;11.80;nan;99949.56;6183975;28;20233;-77
2023/01/12 13:07:25;;;;;;;1.37;0.70;;;;;;;12.04;nan;99954.13;6177924;28;20650;-74
2023/01/12 13:10:55;;;;;;;1.50;1.37;;;;;;;12.20;nan;99951.44;6188327;28;20237;-77
2023/01/12 13:14:19;;;;;;;1.67;0.77;;;;;;;12.98;nan;99948.91;6178384;28;20240;-74
2023/01/12 13:17:42;;;;;;;1.00;0.93;;;;;;;12.90;nan;99957.91;6162915;28;22526;-75
2023/01/12 13:21:04;;;;;;;3.80;1.47;;;;;;;12.93;nan;99971.09;6179074;28;20221;-76
2023/01/12 13:24:28;;;;;;;3.43;1.70;;;;;;;13.69;nan;99949.63;6178692;28;20240;-77
2023/01/12 13:27:54;;;;;;;0.70;0.67;;;;;;;13.18;nan;99966.47;6172376;28;20323;-76
2023/01/12 13:31:30;;;;;;;0.90;0.90;;;;;;;12.98;nan;99984.94;6180303;28;20233;-76
2023/01/12 13:34:51;;;;;;;0.73;0.60;;;;;;;12.72;nan;99974.31;6190678;28;20299;-75
2023/01/12 13:38:22;;;;;;;0.53;0.53;;;;;;;13.05;nan;99988.69;6187531;28;20232;-74
2023/01/12 13:45:22;;;;;;;1.50;1.40;;;;;;;13.11;nan;100011.47;6179407;28;20317;-76
2023/01/12 13:48:49;;;;;;;1.10;1.07;;;;;;;13.18;nan;100018.75;6192246;28;20233;-75
2023/01/12 13:52:21;;;;;;;2.00;0.63;;;;;;;13.48;nan;100022.50;6195609;28;20259;-76
2023/01/12 13:55:56;;;;;;;0.93;0.70;;;;;;;13.07;nan;100021.81;6186829;28;20233;-77
2023/01/12 13:59:18;;;;;;;1.60;1.07;;;;;;;12.77;nan;100027.91;6194323;28;20233;-75
2023/01/12 14:02:40;;;;;;;6.67;2.00;;;;;;;13.11;nan;100028.56;6180284;28;20236;-74
2023/01/12 14:06:10;;;;;;;1.60;1.10;;;;;;;12.79;nan;100036.69;6196304;28;20382;-73
2023/01/12 14:09:41;;;;;;;1.03;0.80;;;;;;;12.96;nan;100018.56;6210889;28;20225;-75
2023/01/12 14:13:35;;;;;;;5.00;1.00;;;;;;;12.83;nan;100024.53;6204006;28;20243;-75
2023/01/12 14:20:43;;;;;;;0.70;0.70;;;;;;;12.69;nan;100031.47;6222532;28;20251;-73
2023/01/12 14:24:15;;;;;;;2.70;1.85;;;;;;;12.98;nan;100044.44;6193046;28;20448;-77
2023/01/12 14:27:36;;;;;;;2.67;0.87;;;;;;;13.09;nan;100051.41;6188303;28;20572;-74
2023/01/12 14:30:59;;;;;;;6.37;1.50;;;;;;;13.06;nan;100060.69;6202014;28;20237;-76
2023/01/12 14:34:30;;;;;;;2.10;1.90;;;;;;;13.15;nan;100058.81;6217511;28;20260;-74
2023/01/12 14:37:55;;;;;;;1.97;0.83;;;;;;;13.13;nan;100055.44;6214889;28;20235;-75
2023/01/12 14:48:41;;;;;;;1.97;1.27;;;;;;;12.71;nan;100059.19;6204769;28;20225;-78
2023/01/12 14:52:03;;;;;;;1.33;1.23;;;;;;;12.83;nan;100047.00;6213923;28;20272;-76
2023/01/12 14:55:28;;;;;;;3.23;1.03;;;;;;;12.91;nan;100054.28;6199948;28;20727;-76
2023/01/12 14:58:49;;;;;;;0.93;0.90;;;;;;;13.13;nan;100058.16;6192827;28;20236;-75
2023/01/12 15:02:24;;;;;;;1.87;1.30;;;;;;;13.14;nan;100055.25;6185110;28;20249;-72
2023/01/12 15:05:51;;;;;;;3.57;0.97;;;;;;;12.76;nan;100053.28;6207655;28;20323;-75
2023/01/12 15:09:26;;;;;;;0.90;0.77;;;;;;;12.61;nan;100063.94;6205838;28;20309;-76
2023/01/12 15:12:49;;;;;;;1.90;0.80;;;;;;;12.53;nan;100057.69;6196259;28;21187;-76
2023/01/12 15:27:12;;;;;;;2.67;0.90;;;;;;;12.81;nan;100095.03;6182168;28;20349;-76
2023/01/12 15:30:38;;;;;;;1.83;1.43;;;;;;;12.89;nan;100086.09;6202392;28;20504;-75
2023/01/12 15:34:00;;;;;;;2.20;1.20;;;;;;;12.98;nan;100086.88;6196763;28;20253;-77
2023/01/12 15:37:21;;;;;;;1.43;1.20;;;;;;;13.25;nan;100086.53;6217327;28;20248;-74
2023/01/12 15:40:46;;;;;;;1.67;1.57;;;;;;;12.82;nan;100080.50;6228700;28;20245;-75
2023/01/12 15:44:11;;;;;;;2.63;1.43;;;;;;;12.71;nan;100088.94;6224347;28;20539;-74
2023/01/12 15:47:32;;;;;;;2.87;1.37;;;;;;;12.43;nan;100092.16;6208634;28;20236;-75
2023/01/12 15:50:53;;;;;;;3.97;2.03;;;;;;;12.47;nan;100088.09;6218138;28;20777;-77
2023/01/12 15:54:16;;;;;;;2.20;1.77;;;;;;;12.92;nan;100085.72;6201908;28;20237;-75
2023/01/12 15:57:38;;;;;;;5.00;1.23;;;;;;;12.91;nan;100089.47;6182853;28;20252;-77
2023/01/12 16:00:59;;;;;;;5.17;3.13;;;;;;;12.66;nan;100088.59;6181574;28;20303;-76
2023/01/12 16:04:22;;;;;;;1.43;1.33;;;;;;;12.60;nan;100099.28;6164089;28;20915;-74
2023/01/12 16:07:43;;;;;;;1.40;1.30;;;;;;;12.47;nan;100096.22;6168992;28;20489;-74
2023/01/12 16:11:12;;;;;;;1.37;1.27;;;;;;;12.65;nan;100095.03;6188390;28;20229;-75
2023/01/12 16:14:35;;;;;;;3.00;1.87;;;;;;;12.70;nan;100089.13;6191926;28;20236;-74
2023/01/12 16:17:56;;;;;;;3.47;2.30;;;;;;;12.74;nan;100098.59;6179027;28;20251;-73
2023/01/12 16:21:21;;;;;;;4.83;2.07;;;;;;;12.57;nan;100089.63;6197479;28;20242;-75
2023/01/12 16:24:42;;;;;;;1.60;1.50;;;;;;;12.78;nan;100089.97;6179285;28;21522;-75
2023/01/12 16:28:03;;;;;;;2.60;2.13;;;;;;;12.76;nan;100091.16;6190547;28;20694;-73
2023/01/12 16:31:26;;;;;;;2.13;1.87;;;;;;;13.00;nan;100091.13;6191172;28;20838;-74
2023/01/12 16:34:47;;;;;;;4.10;2.53;;;;;;;12.70;nan;100095.34;6179297;28;20234;-76
2023/01/12 16:38:08;;;;;;;0.90;0.90;;;;;;;12.48;nan;100084.38;6196167;28;20240;-74
2023/01/12 16:41:29;;;;;;;2.17;2.07;;;;;;;12.54;nan;100094.50;6190426;28;20228;-76
2023/01/12 16:44:50;;;;;;;1.33;0.87;;;;;;;12.77;nan;100082.00;6197701;28;20296;-76
2023/01/12 16:48:13;;;;;;;2.63;1.97;;;;;;;12.71;nan;100078.13;6194863;28;20233;-76
2023/01/12 16:51:34;;;;;;;1.27;1.23;;;;;;;12.26;nan;100091.28;6158050;28;20270;-74
2023/01/12 16:54:55;;;;;;;1.80;1.20;;;;;;;12.53;nan;100071.19;6087957;28;20398;-74
2023/01/12 16:58:15;;;;;;;1.43;1.33;;;;;;;12.61;nan;100073.91;6191659;28;20267;-75
2023/01/12 17:01:37;;;;;;;1.63;1.53;;;;;;;12.41;nan;100073.38;6170396;28;20253;-75
2023/01/12 17:04:59;;;;;;;1.33;1.23;;;;;;;12.55;nan;100071.88;6193937;28;20225;-74
2023/01/12 17:08:20;;;;;;;1.50;1.30;;;;;;;12.20;nan;100070.31;6179346;28;20229;-75
2023/01/12 17:11:42;;;;;;;2.20;1.30;;;;;;;12.64;nan;100058.19;6177846;28;21476;-75
2023/01/12 17:15:04;;;;;;;1.87;1.77;;;;;;;12.78;nan;100057.50;6180741;28;20233;-75
2023/01/12 17:18:24;;;;;;;3.27;1.80;;;;;;;12.61;nan;100057.69;6192613;28;20231;-75
2023/01/12 17:21:48;;;;;;;2.00;1.40;;;;;;;12.53;nan;100052.28;6197763;28;20244;-75
2023/01/12 17:25:10;;;;;;;4.00;0.93;;;;;;;12.67;nan;100059.69;6208373;28;20258;-74
2023/01/12 17:28:34;;;;;;;0.97;0.97;;;;;;;12.36;nan;100054.13;6190884;28;20220;-74